sensor_id;sensor_type;location;lat;lon;timestamp;temperature;humidity
3416;DHT22;1721;51.238;9.562;2023-02-15T00:01:14;4.40;95.90
3416;DHT22;1721;51.238;9.562;2023-02-15T00:03:39;4.50;96.10
3416;DHT22;1721;51.238;9.562;2023-02-15T00:06:05;4.40;95.90
3416;DHT22;1721;51.238;9.562;2023-02-15T00:08:31;4.50;95.80
3416;DHT22;1721;51.238;9.562;2023-02-15T00:11:08;4.50;95.60
3416;DHT22;1721;51.238;9.562;2023-02-15T00:13:34;4.50;95.60
3416;DHT22;1721;51.238;9.562;2023-02-15T00:16:05;4.50;95.70
3416;DHT22;1721;51.238;9.562;2023-02-15T00:18:31;4.50;95.70
3416;DHT22;1721;51.238;9.562;2023-02-15T00:20:57;4.50;95.40
3416;DHT22;1721;51.238;9.562;2023-02-15T00:23:23;4.40;95.30
3416;DHT22;1721;51.238;9.562;2023-02-15T00:25:48;4.30;95.30
3416;DHT22;1721;51.238;9.562;2023-02-15T00:28:14;4.30;95.30
3416;DHT22;1721;51.238;9.562;2023-02-15T00:30:39;4.40;95.00
3416;DHT22;1721;51.238;9.562;2023-02-15T00:33:05;4.30;95.00
3416;DHT22;1721;51.238;9.562;2023-02-15T00:35:30;4.30;95.10
3416;DHT22;1721;51.238;9.562;2023-02-15T00:37:56;4.20;95.20
3416;DHT22;1721;51.238;9.562;2023-02-15T00:40:22;4.20;95.20
3416;DHT22;1721;51.238;9.562;2023-02-15T00:42:47;4.10;95.20
3416;DHT22;1721;51.238;9.562;2023-02-15T00:45:13;3.80;95.80
3416;DHT22;1721;51.238;9.562;2023-02-15T00:47:39;3.60;96.10
3416;DHT22;1721;51.238;9.562;2023-02-15T00:50:05;3.30;97.00
3416;DHT22;1721;51.238;9.562;2023-02-15T00:52:30;3.30;97.60
3416;DHT22;1721;51.238;9.562;2023-02-15T00:54:56;3.30;97.30
3416;DHT22;1721;51.238;9.562;2023-02-15T00:57:22;3.40;97.70
3416;DHT22;1721;51.238;9.562;2023-02-15T00:59:47;3.50;97.60
3416;DHT22;1721;51.238;9.562;2023-02-15T01:02:13;3.40;97.40
3416;DHT22;1721;51.238;9.562;2023-02-15T01:04:38;3.40;97.50
3416;DHT22;1721;51.238;9.562;2023-02-15T01:07:04;3.40;97.40
3416;DHT22;1721;51.238;9.562;2023-02-15T01:09:29;3.40;97.30
3416;DHT22;1721;51.238;9.562;2023-02-15T01:11:55;3.30;97.60
3416;DHT22;1721;51.238;9.562;2023-02-15T01:14:20;3.40;97.50
3416;DHT22;1721;51.238;9.562;2023-02-15T01:16:46;3.40;97.50
3416;DHT22;1721;51.238;9.562;2023-02-15T01:19:12;3.50;97.30
3416;DHT22;1721;51.238;9.562;2023-02-15T01:21:38;3.70;96.90
3416;DHT22;1721;51.238;9.562;2023-02-15T01:24:11;3.90;96.60
3416;DHT22;1721;51.238;9.562;2023-02-15T01:26:37;3.90;96.20
3416;DHT22;1721;51.238;9.562;2023-02-15T01:29:04;3.90;96.30
3416;DHT22;1721;51.238;9.562;2023-02-15T01:31:30;4.10;96.20
3416;DHT22;1721;51.238;9.562;2023-02-15T01:33:55;4.00;96.00
3416;DHT22;1721;51.238;9.562;2023-02-15T01:36:21;3.70;96.50
3416;DHT22;1721;51.238;9.562;2023-02-15T01:42:12;3.50;97.30
3416;DHT22;1721;51.238;9.562;2023-02-15T01:44:54;3.70;96.90
3416;DHT22;1721;51.238;9.562;2023-02-15T01:47:39;3.90;96.60
3416;DHT22;1721;51.238;9.562;2023-02-15T01:52:37;3.80;96.30
3416;DHT22;1721;51.238;9.562;2023-02-15T01:55:06;3.80;96.30
3416;DHT22;1721;51.238;9.562;2023-02-15T01:57:32;3.50;96.70
3416;DHT22;1721;51.238;9.562;2023-02-15T02:00:00;3.40;96.70
3416;DHT22;1721;51.238;9.562;2023-02-15T02:02:27;3.60;96.40
3416;DHT22;1721;51.238;9.562;2023-02-15T02:04:58;3.70;96.20
3416;DHT22;1721;51.238;9.562;2023-02-15T02:07:27;3.60;95.80
3416;DHT22;1721;51.238;9.562;2023-02-15T02:09:54;3.60;96.00
3416;DHT22;1721;51.238;9.562;2023-02-15T02:12:21;3.60;95.70
3416;DHT22;1721;51.238;9.562;2023-02-15T02:14:48;3.90;95.40
3416;DHT22;1721;51.238;9.562;2023-02-15T02:17:24;4.00;95.40
3416;DHT22;1721;51.238;9.562;2023-02-15T02:23:19;4.10;95.20
3416;DHT22;1721;51.238;9.562;2023-02-15T02:34:36;4.20;95.10
3416;DHT22;1721;51.238;9.562;2023-02-15T02:37:16;4.30;95.10
3416;DHT22;1721;51.238;9.562;2023-02-15T02:40:00;4.20;95.20
3416;DHT22;1721;51.238;9.562;2023-02-15T02:42:36;4.00;95.30
3416;DHT22;1721;51.238;9.562;2023-02-15T02:45:10;3.80;95.70
3416;DHT22;1721;51.238;9.562;2023-02-15T02:47:44;3.80;96.20
3416;DHT22;1721;51.238;9.562;2023-02-15T02:50:17;3.80;96.20
3416;DHT22;1721;51.238;9.562;2023-02-15T02:52:46;3.70;96.10
3416;DHT22;1721;51.238;9.562;2023-02-15T03:04:17;3.90;96.10
3416;DHT22;1721;51.238;9.562;2023-02-15T03:06:55;3.70;96.30
3416;DHT22;1721;51.238;9.562;2023-02-15T03:12:14;3.80;95.40
3416;DHT22;1721;51.238;9.562;2023-02-15T03:14:42;3.80;95.70
3416;DHT22;1721;51.238;9.562;2023-02-15T03:17:10;3.60;95.70
3416;DHT22;1721;51.238;9.562;2023-02-15T03:19:37;3.90;95.80
3416;DHT22;1721;51.238;9.562;2023-02-15T03:22:08;4.10;95.30
3416;DHT22;1721;51.238;9.562;2023-02-15T03:24:43;4.20;94.80
3416;DHT22;1721;51.238;9.562;2023-02-15T03:27:20;4.30;94.60
3416;DHT22;1721;51.238;9.562;2023-02-15T03:29:52;4.20;94.60
3416;DHT22;1721;51.238;9.562;2023-02-15T03:32:18;4.30;94.70
3416;DHT22;1721;51.238;9.562;2023-02-15T03:34:45;4.10;94.30
3416;DHT22;1721;51.238;9.562;2023-02-15T03:37:35;4.00;94.70
3416;DHT22;1721;51.238;9.562;2023-02-15T03:43:11;3.90;94.60
3416;DHT22;1721;51.238;9.562;2023-02-15T03:45:39;3.70;94.80
3416;DHT22;1721;51.238;9.562;2023-02-15T03:48:39;3.80;94.80
3416;DHT22;1721;51.238;9.562;2023-02-15T03:51:09;3.70;94.70
3416;DHT22;1721;51.238;9.562;2023-02-15T03:53:55;3.80;94.60
3416;DHT22;1721;51.238;9.562;2023-02-15T03:56:22;3.70;94.40
3416;DHT22;1721;51.238;9.562;2023-02-15T03:58:48;3.50;94.40
3416;DHT22;1721;51.238;9.562;2023-02-15T04:01:39;3.40;94.40
3416;DHT22;1721;51.238;9.562;2023-02-15T04:04:34;3.40;94.50
3416;DHT22;1721;51.238;9.562;2023-02-15T04:07:02;3.50;94.60
3416;DHT22;1721;51.238;9.562;2023-02-15T04:09:27;3.50;94.40
3416;DHT22;1721;51.238;9.562;2023-02-15T04:12:12;3.40;94.30
3416;DHT22;1721;51.238;9.562;2023-02-15T04:14:37;3.30;94.60
3416;DHT22;1721;51.238;9.562;2023-02-15T04:17:21;3.30;94.70
3416;DHT22;1721;51.238;9.562;2023-02-15T04:19:47;3.30;94.90
3416;DHT22;1721;51.238;9.562;2023-02-15T04:22:31;3.30;94.90
3416;DHT22;1721;51.238;9.562;2023-02-15T04:25:15;3.30;94.90
3416;DHT22;1721;51.238;9.562;2023-02-15T04:27:43;3.30;94.90
3416;DHT22;1721;51.238;9.562;2023-02-15T04:30:11;3.30;94.80
3416;DHT22;1721;51.238;9.562;2023-02-15T04:32:37;3.40;95.00
3416;DHT22;1721;51.238;9.562;2023-02-15T04:35:04;3.20;94.80
3416;DHT22;1721;51.238;9.562;2023-02-15T04:37:31;3.10;95.30
3416;DHT22;1721;51.238;9.562;2023-02-15T04:39:56;3.10;95.50
3416;DHT22;1721;51.238;9.562;2023-02-15T04:42:24;2.50;95.70
3416;DHT22;1721;51.238;9.562;2023-02-15T04:44:50;2.30;96.80
3416;DHT22;1721;51.238;9.562;2023-02-15T04:47:16;2.60;96.80
3416;DHT22;1721;51.238;9.562;2023-02-15T04:49:41;2.50;96.20
3416;DHT22;1721;51.238;9.562;2023-02-15T04:52:07;2.50;97.10
3416;DHT22;1721;51.238;9.562;2023-02-15T04:54:32;2.70;96.80
3416;DHT22;1721;51.238;9.562;2023-02-15T04:56:58;3.00;96.60
3416;DHT22;1721;51.238;9.562;2023-02-15T04:59:23;2.50;96.50
3416;DHT22;1721;51.238;9.562;2023-02-15T05:01:49;2.90;96.90
3416;DHT22;1721;51.238;9.562;2023-02-15T05:04:14;3.20;96.30
3416;DHT22;1721;51.238;9.562;2023-02-15T05:06:40;3.50;95.80
3416;DHT22;1721;51.238;9.562;2023-02-15T05:09:05;3.40;95.30
3416;DHT22;1721;51.238;9.562;2023-02-15T05:11:31;3.20;95.50
3416;DHT22;1721;51.238;9.562;2023-02-15T05:13:56;3.10;95.70
3416;DHT22;1721;51.238;9.562;2023-02-15T05:16:22;3.00;96.10
3416;DHT22;1721;51.238;9.562;2023-02-15T05:18:47;3.20;96.00
3416;DHT22;1721;51.238;9.562;2023-02-15T05:21:13;3.40;95.80
3416;DHT22;1721;51.238;9.562;2023-02-15T05:23:41;3.50;95.60
3416;DHT22;1721;51.238;9.562;2023-02-15T05:26:17;3.70;95.30
3416;DHT22;1721;51.238;9.562;2023-02-15T05:29:02;3.70;94.90
3416;DHT22;1721;51.238;9.562;2023-02-15T05:31:27;3.60;94.90
3416;DHT22;1721;51.238;9.562;2023-02-15T05:33:53;3.70;94.80
3416;DHT22;1721;51.238;9.562;2023-02-15T05:36:18;3.80;94.50
3416;DHT22;1721;51.238;9.562;2023-02-15T05:38:44;3.60;94.90
3416;DHT22;1721;51.238;9.562;2023-02-15T05:41:11;3.60;95.10
3416;DHT22;1721;51.238;9.562;2023-02-15T05:43:37;3.70;94.90
3416;DHT22;1721;51.238;9.562;2023-02-15T05:46:03;3.80;94.80
3416;DHT22;1721;51.238;9.562;2023-02-15T05:48:29;3.80;94.80
3416;DHT22;1721;51.238;9.562;2023-02-15T05:51:07;3.80;94.80
3416;DHT22;1721;51.238;9.562;2023-02-15T05:53:35;3.70;94.80
3416;DHT22;1721;51.238;9.562;2023-02-15T05:56:01;3.70;94.70
3416;DHT22;1721;51.238;9.562;2023-02-15T05:58:36;3.70;94.40
3416;DHT22;1721;51.238;9.562;2023-02-15T06:01:17;3.50;94.90
3416;DHT22;1721;51.238;9.562;2023-02-15T06:03:43;3.60;94.90
3416;DHT22;1721;51.238;9.562;2023-02-15T06:06:10;3.60;94.80
3416;DHT22;1721;51.238;9.562;2023-02-15T06:08:37;3.40;94.70
3416;DHT22;1721;51.238;9.562;2023-02-15T06:11:03;3.30;94.90
3416;DHT22;1721;51.238;9.562;2023-02-15T06:13:29;3.20;95.50
3416;DHT22;1721;51.238;9.562;2023-02-15T06:15:55;3.00;94.90
3416;DHT22;1721;51.238;9.562;2023-02-15T06:18:20;3.20;95.30
3416;DHT22;1721;51.238;9.562;2023-02-15T06:20:46;3.10;95.40
3416;DHT22;1721;51.238;9.562;2023-02-15T06:23:12;3.20;94.90
3416;DHT22;1721;51.238;9.562;2023-02-15T06:25:38;3.00;95.50
3416;DHT22;1721;51.238;9.562;2023-02-15T06:28:03;3.00;95.60
3416;DHT22;1721;51.238;9.562;2023-02-15T06:30:29;2.90;96.00
3416;DHT22;1721;51.238;9.562;2023-02-15T06:32:54;2.60;95.80
3416;DHT22;1721;51.238;9.562;2023-02-15T06:35:20;2.50;96.60
3416;DHT22;1721;51.238;9.562;2023-02-15T06:37:47;2.60;96.40
3416;DHT22;1721;51.238;9.562;2023-02-15T06:40:13;2.80;96.10
3416;DHT22;1721;51.238;9.562;2023-02-15T06:42:39;3.00;96.10
3416;DHT22;1721;51.238;9.562;2023-02-15T06:45:05;3.20;95.80
3416;DHT22;1721;51.238;9.562;2023-02-15T06:47:31;3.00;95.30
3416;DHT22;1721;51.238;9.562;2023-02-15T06:49:56;2.60;95.80
3416;DHT22;1721;51.238;9.562;2023-02-15T06:52:23;2.60;96.50
3416;DHT22;1721;51.238;9.562;2023-02-15T06:54:48;2.80;96.00
3416;DHT22;1721;51.238;9.562;2023-02-15T06:57:14;2.70;96.30
3416;DHT22;1721;51.238;9.562;2023-02-15T06:59:40;2.80;96.10
3416;DHT22;1721;51.238;9.562;2023-02-15T07:02:06;3.00;95.90
3416;DHT22;1721;51.238;9.562;2023-02-15T07:04:31;2.70;95.30
3416;DHT22;1721;51.238;9.562;2023-02-15T07:06:57;2.60;96.20
3416;DHT22;1721;51.238;9.562;2023-02-15T07:09:23;2.70;96.20
3416;DHT22;1721;51.238;9.562;2023-02-15T07:11:48;2.70;95.80
3416;DHT22;1721;51.238;9.562;2023-02-15T07:14:32;2.20;96.30
3416;DHT22;1721;51.238;9.562;2023-02-15T07:16:58;2.20;96.60
3416;DHT22;1721;51.238;9.562;2023-02-15T07:19:23;2.30;96.70
3416;DHT22;1721;51.238;9.562;2023-02-15T07:21:49;2.30;96.40
3416;DHT22;1721;51.238;9.562;2023-02-15T07:24:16;2.10;96.60
3416;DHT22;1721;51.238;9.562;2023-02-15T07:26:41;2.00;96.80
3416;DHT22;1721;51.238;9.562;2023-02-15T07:29:07;1.90;96.90
3416;DHT22;1721;51.238;9.562;2023-02-15T07:31:32;2.10;96.80
3416;DHT22;1721;51.238;9.562;2023-02-15T07:33:58;2.20;96.40
3416;DHT22;1721;51.238;9.562;2023-02-15T07:36:24;2.10;96.80
3416;DHT22;1721;51.238;9.562;2023-02-15T07:38:49;2.40;96.80
3416;DHT22;1721;51.238;9.562;2023-02-15T07:41:15;2.60;96.60
3416;DHT22;1721;51.238;9.562;2023-02-15T07:43:42;2.50;96.40
3416;DHT22;1721;51.238;9.562;2023-02-15T07:46:11;2.50;96.70
3416;DHT22;1721;51.238;9.562;2023-02-15T07:48:37;2.60;97.10
3416;DHT22;1721;51.238;9.562;2023-02-15T07:51:05;2.80;97.00
3416;DHT22;1721;51.238;9.562;2023-02-15T07:53:31;2.90;96.90
3416;DHT22;1721;51.238;9.562;2023-02-15T07:56:01;2.90;96.60
3416;DHT22;1721;51.238;9.562;2023-02-15T07:58:27;3.00;96.40
3416;DHT22;1721;51.238;9.562;2023-02-15T08:01:13;3.00;96.80
3416;DHT22;1721;51.238;9.562;2023-02-15T08:03:39;3.20;96.50
3416;DHT22;1721;51.238;9.562;2023-02-15T08:06:05;3.30;96.20
3416;DHT22;1721;51.238;9.562;2023-02-15T08:08:33;3.20;95.90
3416;DHT22;1721;51.238;9.562;2023-02-15T08:13:55;3.50;94.90
3416;DHT22;1721;51.238;9.562;2023-02-15T08:18:57;3.00;95.20
3416;DHT22;1721;51.238;9.562;2023-02-15T08:21:23;3.00;95.80
3416;DHT22;1721;51.238;9.562;2023-02-15T08:23:50;2.90;95.80
3416;DHT22;1721;51.238;9.562;2023-02-15T08:26:16;2.80;96.30
3416;DHT22;1721;51.238;9.562;2023-02-15T08:28:42;2.70;96.20
3416;DHT22;1721;51.238;9.562;2023-02-15T08:31:10;2.80;96.60
3416;DHT22;1721;51.238;9.562;2023-02-15T08:33:38;2.60;96.30
3416;DHT22;1721;51.238;9.562;2023-02-15T08:36:05;2.90;96.40
3416;DHT22;1721;51.238;9.562;2023-02-15T08:38:31;3.30;96.30
3416;DHT22;1721;51.238;9.562;2023-02-15T08:40:58;3.10;95.70
3416;DHT22;1721;51.238;9.562;2023-02-15T08:43:23;3.30;95.90
3416;DHT22;1721;51.238;9.562;2023-02-15T08:45:49;3.30;95.60
3416;DHT22;1721;51.238;9.562;2023-02-15T08:48:15;3.20;95.70
3416;DHT22;1721;51.238;9.562;2023-02-15T08:50:40;3.20;95.90
3416;DHT22;1721;51.238;9.562;2023-02-15T08:53:06;3.10;96.00
3416;DHT22;1721;51.238;9.562;2023-02-15T08:55:31;3.30;95.90
3416;DHT22;1721;51.238;9.562;2023-02-15T08:57:57;3.50;95.90
3416;DHT22;1721;51.238;9.562;2023-02-15T09:00:23;3.00;95.80
3416;DHT22;1721;51.238;9.562;2023-02-15T09:02:48;3.00;96.10
3416;DHT22;1721;51.238;9.562;2023-02-15T09:05:14;3.30;96.10
3416;DHT22;1721;51.238;9.562;2023-02-15T09:07:39;3.20;95.70
3416;DHT22;1721;51.238;9.562;2023-02-15T09:10:06;3.40;96.20
3416;DHT22;1721;51.238;9.562;2023-02-15T09:12:32;3.40;96.10
3416;DHT22;1721;51.238;9.562;2023-02-15T09:14:57;3.50;96.10
3416;DHT22;1721;51.238;9.562;2023-02-15T09:17:23;3.50;96.00
3416;DHT22;1721;51.238;9.562;2023-02-15T09:19:48;3.60;96.10
3416;DHT22;1721;51.238;9.562;2023-02-15T09:22:14;3.80;95.60
3416;DHT22;1721;51.238;9.562;2023-02-15T09:24:39;3.80;95.60
3416;DHT22;1721;51.238;9.562;2023-02-15T09:27:05;3.80;95.50
3416;DHT22;1721;51.238;9.562;2023-02-15T09:29:30;4.10;95.60
3416;DHT22;1721;51.238;9.562;2023-02-15T09:31:56;4.10;95.60
3416;DHT22;1721;51.238;9.562;2023-02-15T09:34:22;4.20;95.00
3416;DHT22;1721;51.238;9.562;2023-02-15T09:36:48;4.00;95.00
3416;DHT22;1721;51.238;9.562;2023-02-15T09:39:16;3.90;95.90
3416;DHT22;1721;51.238;9.562;2023-02-15T09:42:04;4.30;95.50
3416;DHT22;1721;51.238;9.562;2023-02-15T09:56:16;4.40;94.50
3416;DHT22;1721;51.238;9.562;2023-02-15T10:01:24;4.50;95.00
3416;DHT22;1721;51.238;9.562;2023-02-15T10:04:16;4.30;95.30
3416;DHT22;1721;51.238;9.562;2023-02-15T10:09:35;4.40;95.20
3416;DHT22;1721;51.238;9.562;2023-02-15T10:29:00;4.90;94.00
3416;DHT22;1721;51.238;9.562;2023-02-15T10:31:48;4.70;94.80
3416;DHT22;1721;51.238;9.562;2023-02-15T10:37:36;5.10;94.70
3416;DHT22;1721;51.238;9.562;2023-02-15T10:50:49;4.80;95.60
3416;DHT22;1721;51.238;9.562;2023-02-15T10:56:24;4.80;95.90
3416;DHT22;1721;51.238;9.562;2023-02-15T11:02:08;5.00;95.60
3416;DHT22;1721;51.238;9.562;2023-02-15T11:04:53;4.90;95.20
3416;DHT22;1721;51.238;9.562;2023-02-15T11:07:25;4.60;95.40
3416;DHT22;1721;51.238;9.562;2023-02-15T11:12:45;4.80;96.30
3416;DHT22;1721;51.238;9.562;2023-02-15T11:15:27;5.20;95.60
3416;DHT22;1721;51.238;9.562;2023-02-15T11:20:54;5.30;95.60
3416;DHT22;1721;51.238;9.562;2023-02-15T11:23:21;5.50;95.10
3416;DHT22;1721;51.238;9.562;2023-02-15T11:26:00;5.40;95.00
3416;DHT22;1721;51.238;9.562;2023-02-15T11:29:10;5.00;95.00
3416;DHT22;1721;51.238;9.562;2023-02-15T11:31:51;5.40;95.60
3416;DHT22;1721;51.238;9.562;2023-02-15T11:34:26;5.40;95.20
3416;DHT22;1721;51.238;9.562;2023-02-15T11:36:55;5.30;94.90
3416;DHT22;1721;51.238;9.562;2023-02-15T11:39:24;5.60;95.00
3416;DHT22;1721;51.238;9.562;2023-02-15T11:41:56;6.00;94.70
3416;DHT22;1721;51.238;9.562;2023-02-15T11:47:20;6.10;94.40
3416;DHT22;1721;51.238;9.562;2023-02-15T11:49:46;6.00;94.50
3416;DHT22;1721;51.238;9.562;2023-02-15T11:52:14;5.90;94.80
3416;DHT22;1721;51.238;9.562;2023-02-15T11:54:47;6.00;94.80
3416;DHT22;1721;51.238;9.562;2023-02-15T11:57:33;6.20;94.40
3416;DHT22;1721;51.238;9.562;2023-02-15T12:00:03;6.00;94.80
3416;DHT22;1721;51.238;9.562;2023-02-15T12:02:32;6.10;94.80
3416;DHT22;1721;51.238;9.562;2023-02-15T12:05:12;6.10;94.40
3416;DHT22;1721;51.238;9.562;2023-02-15T12:10:29;6.10;94.70
3416;DHT22;1721;51.238;9.562;2023-02-15T12:13:14;6.40;94.80
3416;DHT22;1721;51.238;9.562;2023-02-15T12:15:46;6.20;95.10
3416;DHT22;1721;51.238;9.562;2023-02-15T12:18:33;6.20;95.40
3416;DHT22;1721;51.238;9.562;2023-02-15T12:23:34;6.60;95.10
3416;DHT22;1721;51.238;9.562;2023-02-15T12:26:00;6.20;95.20
3416;DHT22;1721;51.238;9.562;2023-02-15T12:28:35;5.90;95.20
3416;DHT22;1721;51.238;9.562;2023-02-15T12:31:04;5.90;96.00
3416;DHT22;1721;51.238;9.562;2023-02-15T12:33:39;5.90;95.60
3416;DHT22;1721;51.238;9.562;2023-02-15T12:36:21;5.70;96.50
3416;DHT22;1721;51.238;9.562;2023-02-15T12:41:44;5.40;96.50
3416;DHT22;1721;51.238;9.562;2023-02-15T12:49:26;5.60;96.20
3416;DHT22;1721;51.238;9.562;2023-02-15T12:52:24;5.50;96.90
3416;DHT22;1721;51.238;9.562;2023-02-15T12:54:50;5.90;95.80
3416;DHT22;1721;51.238;9.562;2023-02-15T12:57:28;6.10;95.70
3416;DHT22;1721;51.238;9.562;2023-02-15T12:59:58;5.80;96.10
3416;DHT22;1721;51.238;9.562;2023-02-15T13:02:40;5.80;96.00
3416;DHT22;1721;51.238;9.562;2023-02-15T13:05:25;5.90;96.00
3416;DHT22;1721;51.238;9.562;2023-02-15T13:08:01;5.70;96.20
3416;DHT22;1721;51.238;9.562;2023-02-15T13:10:33;5.80;96.30
3416;DHT22;1721;51.238;9.562;2023-02-15T13:12:59;5.80;96.20
3416;DHT22;1721;51.238;9.562;2023-02-15T13:15:34;5.80;96.00
3416;DHT22;1721;51.238;9.562;2023-02-15T13:18:01;6.00;96.30
3416;DHT22;1721;51.238;9.562;2023-02-15T13:20:28;6.00;95.80
3416;DHT22;1721;51.238;9.562;2023-02-15T13:22:59;6.00;95.90
3416;DHT22;1721;51.238;9.562;2023-02-15T13:25:30;5.90;96.20
3416;DHT22;1721;51.238;9.562;2023-02-15T13:28:01;5.70;96.20
3416;DHT22;1721;51.238;9.562;2023-02-15T13:30:33;5.90;96.30
3416;DHT22;1721;51.238;9.562;2023-02-15T13:33:05;6.00;96.00
3416;DHT22;1721;51.238;9.562;2023-02-15T13:36:01;5.40;96.10
3416;DHT22;1721;51.238;9.562;2023-02-15T13:38:46;5.30;96.40
3416;DHT22;1721;51.238;9.562;2023-02-15T13:41:32;5.30;96.90
3416;DHT22;1721;51.238;9.562;2023-02-15T13:47:06;5.90;96.80
3416;DHT22;1721;51.238;9.562;2023-02-15T13:49:50;5.90;96.70
3416;DHT22;1721;51.238;9.562;2023-02-15T13:52:23;6.20;96.80
3416;DHT22;1721;51.238;9.562;2023-02-15T14:00:44;6.20;96.60
3416;DHT22;1721;51.238;9.562;2023-02-15T14:03:18;6.40;96.30
3416;DHT22;1721;51.238;9.562;2023-02-15T14:11:35;6.40;96.10
3416;DHT22;1721;51.238;9.562;2023-02-15T14:17:13;6.60;96.30
3416;DHT22;1721;51.238;9.562;2023-02-15T14:19:40;6.60;96.40
3416;DHT22;1721;51.238;9.562;2023-02-15T14:24:46;6.80;96.00
3416;DHT22;1721;51.238;9.562;2023-02-15T14:30:34;6.50;96.20
3416;DHT22;1721;51.238;9.562;2023-02-15T14:33:07;6.40;96.50
3416;DHT22;1721;51.238;9.562;2023-02-15T14:35:34;6.50;96.80
3416;DHT22;1721;51.238;9.562;2023-02-15T14:38:24;6.70;96.60
3416;DHT22;1721;51.238;9.562;2023-02-15T14:40:53;6.90;96.00
3416;DHT22;1721;51.238;9.562;2023-02-15T14:46:34;6.80;96.20
3416;DHT22;1721;51.238;9.562;2023-02-15T14:49:11;6.70;96.70
3416;DHT22;1721;51.238;9.562;2023-02-15T14:59:39;7.30;95.80
3416;DHT22;1721;51.238;9.562;2023-02-15T15:04:39;7.30;95.90
3416;DHT22;1721;51.238;9.562;2023-02-15T15:07:16;7.30;95.80
3416;DHT22;1721;51.238;9.562;2023-02-15T15:09:45;7.40;95.80
3416;DHT22;1721;51.238;9.562;2023-02-15T15:14:46;7.40;95.60
3416;DHT22;1721;51.238;9.562;2023-02-15T15:22:25;7.20;95.50
3416;DHT22;1721;51.238;9.562;2023-02-15T15:24:56;7.30;95.40
3416;DHT22;1721;51.238;9.562;2023-02-15T15:40:55;6.90;95.80
3416;DHT22;1721;51.238;9.562;2023-02-15T15:46:18;6.80;95.70
3416;DHT22;1721;51.238;9.562;2023-02-15T15:48:47;6.70;95.70
3416;DHT22;1721;51.238;9.562;2023-02-15T15:51:18;6.60;95.70
3416;DHT22;1721;51.238;9.562;2023-02-15T15:53:49;6.50;95.80
3416;DHT22;1721;51.238;9.562;2023-02-15T15:56:24;6.30;95.80
3416;DHT22;1721;51.238;9.562;2023-02-15T15:58:56;6.30;95.90
3416;DHT22;1721;51.238;9.562;2023-02-15T16:01:31;6.20;96.20
3416;DHT22;1721;51.238;9.562;2023-02-15T16:03:59;6.00;96.20
3416;DHT22;1721;51.238;9.562;2023-02-15T16:06:35;5.90;96.40
3416;DHT22;1721;51.238;9.562;2023-02-15T16:09:33;5.70;96.50
3416;DHT22;1721;51.238;9.562;2023-02-15T16:11:59;5.60;96.60
3416;DHT22;1721;51.238;9.562;2023-02-15T16:14:37;5.30;96.90
3416;DHT22;1721;51.238;9.562;2023-02-15T16:17:06;5.40;97.10
3416;DHT22;1721;51.238;9.562;2023-02-15T16:19:41;5.50;96.70
3416;DHT22;1721;51.238;9.562;2023-02-15T16:22:29;5.60;96.50
3416;DHT22;1721;51.238;9.562;2023-02-15T16:25:07;5.70;96.60
3416;DHT22;1721;51.238;9.562;2023-02-15T16:27:43;5.60;96.40
3416;DHT22;1721;51.238;9.562;2023-02-15T16:30:30;5.50;96.40
3416;DHT22;1721;51.238;9.562;2023-02-15T16:33:12;5.60;96.60
3416;DHT22;1721;51.238;9.562;2023-02-15T16:35:40;5.70;96.20
3416;DHT22;1721;51.238;9.562;2023-02-15T16:38:09;5.70;96.10
3416;DHT22;1721;51.238;9.562;2023-02-15T16:41:03;5.50;96.30
3416;DHT22;1721;51.238;9.562;2023-02-15T16:43:29;5.50;96.70
3416;DHT22;1721;51.238;9.562;2023-02-15T16:46:10;5.50;96.20
3416;DHT22;1721;51.238;9.562;2023-02-15T16:48:41;5.30;96.60
3416;DHT22;1721;51.238;9.562;2023-02-15T16:51:07;5.30;96.70
3416;DHT22;1721;51.238;9.562;2023-02-15T16:53:34;5.20;96.70
3416;DHT22;1721;51.238;9.562;2023-02-15T16:56:02;5.20;96.70
3416;DHT22;1721;51.238;9.562;2023-02-15T16:58:40;5.10;96.80
3416;DHT22;1721;51.238;9.562;2023-02-15T17:01:08;5.10;96.80
3416;DHT22;1721;51.238;9.562;2023-02-15T17:03:35;4.90;97.10
3416;DHT22;1721;51.238;9.562;2023-02-15T17:06:02;4.80;97.20
3416;DHT22;1721;51.238;9.562;2023-02-15T17:08:42;4.80;97.40
3416;DHT22;1721;51.238;9.562;2023-02-15T17:13:37;4.90;96.80
3416;DHT22;1721;51.238;9.562;2023-02-15T17:18:54;4.90;96.40
3416;DHT22;1721;51.238;9.562;2023-02-15T17:21:27;4.70;96.90
3416;DHT22;1721;51.238;9.562;2023-02-15T17:24:00;4.60;97.20
3416;DHT22;1721;51.238;9.562;2023-02-15T17:26:32;4.50;97.10
3416;DHT22;1721;51.238;9.562;2023-02-15T17:29:11;4.30;97.60
3416;DHT22;1721;51.238;9.562;2023-02-15T17:31:39;3.70;98.00
3416;DHT22;1721;51.238;9.562;2023-02-15T17:34:05;3.50;98.80
3416;DHT22;1721;51.238;9.562;2023-02-15T17:36:31;3.70;98.90
3416;DHT22;1721;51.238;9.562;2023-02-15T17:41:27;4.00;98.60
3416;DHT22;1721;51.238;9.562;2023-02-15T17:43:53;4.10;98.40
3416;DHT22;1721;51.238;9.562;2023-02-15T17:46:18;3.70;98.60
3416;DHT22;1721;51.238;9.562;2023-02-15T17:48:48;3.30;99.50
3416;DHT22;1721;51.238;9.562;2023-02-15T17:51:15;3.00;99.90
3416;DHT22;1721;51.238;9.562;2023-02-15T17:53:44;3.10;99.90
3416;DHT22;1721;51.238;9.562;2023-02-15T17:56:30;3.30;99.90
3416;DHT22;1721;51.238;9.562;2023-02-15T17:58:56;3.40;99.90
3416;DHT22;1721;51.238;9.562;2023-02-15T18:01:21;3.40;99.80
3416;DHT22;1721;51.238;9.562;2023-02-15T18:04:14;3.30;99.90
3416;DHT22;1721;51.238;9.562;2023-02-15T18:06:58;3.50;99.90
3416;DHT22;1721;51.238;9.562;2023-02-15T18:09:43;3.70;99.90
3416;DHT22;1721;51.238;9.562;2023-02-15T18:12:31;3.50;99.90
3416;DHT22;1721;51.238;9.562;2023-02-15T18:14:57;3.60;99.80
3416;DHT22;1721;51.238;9.562;2023-02-15T18:17:41;3.50;99.90
3416;DHT22;1721;51.238;9.562;2023-02-15T18:20:34;3.50;99.90
3416;DHT22;1721;51.238;9.562;2023-02-15T18:23:01;3.70;99.90
3416;DHT22;1721;51.238;9.562;2023-02-15T18:25:26;3.90;99.90
3416;DHT22;1721;51.238;9.562;2023-02-15T18:27:52;4.10;99.70
3416;DHT22;1721;51.238;9.562;2023-02-15T18:30:20;4.30;99.50
3416;DHT22;1721;51.238;9.562;2023-02-15T18:32:48;4.20;99.30
3416;DHT22;1721;51.238;9.562;2023-02-15T18:35:20;4.40;99.30
3416;DHT22;1721;51.238;9.562;2023-02-15T18:37:47;4.40;99.30
3416;DHT22;1721;51.238;9.562;2023-02-15T18:40:22;4.50;99.30
3416;DHT22;1721;51.238;9.562;2023-02-15T18:42:49;4.60;99.30
3416;DHT22;1721;51.238;9.562;2023-02-15T18:47:43;4.70;98.60
3416;DHT22;1721;51.238;9.562;2023-02-15T18:50:11;4.40;99.00
3416;DHT22;1721;51.238;9.562;2023-02-15T18:52:37;4.40;99.20
3416;DHT22;1721;51.238;9.562;2023-02-15T18:55:23;4.30;99.60
3416;DHT22;1721;51.238;9.562;2023-02-15T18:57:51;4.60;99.20
3416;DHT22;1721;51.238;9.562;2023-02-15T19:00:19;4.80;99.00
3416;DHT22;1721;51.238;9.562;2023-02-15T19:02:46;4.70;98.60
3416;DHT22;1721;51.238;9.562;2023-02-15T19:05:12;4.80;98.90
3416;DHT22;1721;51.238;9.562;2023-02-15T19:07:38;4.80;98.90
3416;DHT22;1721;51.238;9.562;2023-02-15T19:10:06;4.70;98.50
3416;DHT22;1721;51.238;9.562;2023-02-15T19:12:33;4.50;98.80
3416;DHT22;1721;51.238;9.562;2023-02-15T19:14:59;4.70;99.20
3416;DHT22;1721;51.238;9.562;2023-02-15T19:17:25;4.80;98.80
3416;DHT22;1721;51.238;9.562;2023-02-15T19:19:51;4.80;98.70
3416;DHT22;1721;51.238;9.562;2023-02-15T19:22:24;4.70;98.90
3416;DHT22;1721;51.238;9.562;2023-02-15T19:24:51;4.90;98.60
3416;DHT22;1721;51.238;9.562;2023-02-15T19:27:34;4.60;98.70
3416;DHT22;1721;51.238;9.562;2023-02-15T19:30:09;4.10;99.30
3416;DHT22;1721;51.238;9.562;2023-02-15T19:32:36;4.10;99.90
3416;DHT22;1721;51.238;9.562;2023-02-15T19:35:02;4.20;99.70
3416;DHT22;1721;51.238;9.562;2023-02-15T19:37:36;4.20;99.60
3416;DHT22;1721;51.238;9.562;2023-02-15T19:40:05;4.10;99.90
3416;DHT22;1721;51.238;9.562;2023-02-15T19:42:31;4.10;99.90
3416;DHT22;1721;51.238;9.562;2023-02-15T19:44:59;4.00;99.90